Time;durP1;ratioP1;P1;durP2;ratioP2;P2;SDS_P1;SDS_P2;PMS_P1;PMS_P2;Temp;Humidity;BMP_temperature;BMP_pressure;BME280_temperature;BME280_humidity;BME280_pressure;Samples;Min_cycle;Max_cycle;Signal;HPM_P1;HPM_P2
2023/12/24 00:00:03;;;;;;;11.30;2.05;;;;;;;9.70;100.00;100802.16;6079574;19;20078;-73
2023/12/24 00:02:07;;;;;;;12.85;2.17;;;;;;;9.71;100.00;100798.63;6083516;19;20576;-73
2023/12/24 00:04:13;;;;;;;7.63;1.90;;;;;;;9.71;100.00;100795.16;6084007;19;20477;-74
2023/12/24 00:06:20;;;;;;;7.03;1.90;;;;;;;9.67;100.00;100782.16;6083031;19;20797;-73
2023/12/24 00:08:28;;;;;;;7.32;2.00;;;;;;;9.68;100.00;100775.97;6083566;19;20034;-73
2023/12/24 00:10:33;;;;;;;6.00;2.10;;;;;;;9.63;100.00;100764.78;6083844;19;20043;-74
2023/12/24 00:12:42;;;;;;;6.88;1.83;;;;;;;9.62;100.00;100751.75;6084415;19;20015;-74
2023/12/24 00:14:50;;;;;;;5.07;2.00;;;;;;;9.64;100.00;100740.28;6083278;19;20015;-74
2023/12/24 00:16:56;;;;;;;8.40;2.20;;;;;;;9.67;100.00;100747.19;6082338;19;20027;-74
2023/12/24 00:19:01;;;;;;;8.50;2.42;;;;;;;9.63;100.00;100749.06;6082852;19;20056;-74
2023/12/24 00:21:06;;;;;;;5.70;1.75;;;;;;;9.60;100.00;100741.31;6083555;19;20010;-74
2023/12/24 00:23:13;;;;;;;6.15;1.50;;;;;;;9.63;100.00;100741.19;6082946;19;20387;-74
2023/12/24 00:25:21;;;;;;;9.32;2.08;;;;;;;9.63;100.00;100740.34;6084844;19;20033;-74
2023/12/24 00:27:26;;;;;;;8.20;2.20;;;;;;;9.62;100.00;100741.25;6080430;19;20015;-74
2023/12/24 00:29:31;;;;;;;3.42;1.73;;;;;;;9.66;100.00;100740.22;6077617;19;20017;-76
2023/12/24 00:31:36;;;;;;;5.20;1.60;;;;;;;9.63;100.00;100746.44;6082092;19;20035;-74
2023/12/24 00:33:38;;;;;;;7.63;2.00;;;;;;;9.63;100.00;100749.06;6082850;19;20779;-73
2023/12/24 00:35:44;;;;;;;7.40;2.20;;;;;;;9.61;100.00;100758.78;6078897;19;20014;-73
2023/12/24 00:37:50;;;;;;;10.02;2.08;;;;;;;9.68;100.00;100744.50;6083830;19;20036;-76
2023/12/24 00:39:58;;;;;;;6.63;2.15;;;;;;;9.70;100.00;100725.22;6078719;19;22627;-74
2023/12/24 00:42:11;;;;;;;9.88;2.08;;;;;;;9.70;100.00;100740.97;6082136;19;20023;-74
2023/12/24 00:44:16;;;;;;;13.57;3.10;;;;;;;9.70;100.00;100735.72;6081569;19;20011;-74
2023/12/24 00:46:21;;;;;;;5.93;2.70;;;;;;;9.70;100.00;100746.22;6081639;19;20007;-75
2023/12/24 00:48:24;;;;;;;7.82;2.60;;;;;;;9.71;100.00;100742.66;6077293;19;20013;-74
2023/12/24 00:50:30;;;;;;;10.10;3.17;;;;;;;9.71;100.00;100717.28;6077954;19;20003;-74
2023/12/24 00:52:36;;;;;;;4.70;1.60;;;;;;;9.68;100.00;100722.66;6079903;19;20517;-75
2023/12/24 00:54:41;;;;;;;7.03;2.53;;;;;;;9.69;100.00;100711.25;6080631;19;20010;-73
2023/12/24 00:56:52;;;;;;;10.60;3.17;;;;;;;9.62;100.00;100721.13;6082153;19;20011;-73
2023/12/24 00:58:56;;;;;;;14.13;2.83;;;;;;;9.63;100.00;100722.81;6079149;19;20018;-73
2023/12/24 01:01:01;;;;;;;7.78;2.13;;;;;;;9.60;100.00;100701.94;6078596;19;20090;-74
2023/12/24 01:03:06;;;;;;;16.30;2.83;;;;;;;9.59;100.00;100720.41;6074784;19;20010;-74
2023/12/24 01:05:11;;;;;;;9.98;2.63;;;;;;;9.59;100.00;100697.63;6077766;19;20011;-74
2023/12/24 01:07:21;;;;;;;8.00;2.80;;;;;;;9.59;100.00;100700.25;6080223;19;20019;-74
2023/12/24 01:09:26;;;;;;;12.32;2.92;;;;;;;9.53;100.00;100703.13;6079291;19;20094;-73
2023/12/24 01:11:28;;;;;;;8.45;2.85;;;;;;;9.52;100.00;100701.41;6080037;19;20003;-72
2023/12/24 01:13:36;;;;;;;12.43;3.13;;;;;;;9.51;100.00;100711.97;6076283;19;20010;-73
2023/12/24 01:15:40;;;;;;;11.05;2.95;;;;;;;9.50;100.00;100712.84;6081192;19;20045;-74
2023/12/24 01:17:46;;;;;;;7.50;2.70;;;;;;;9.47;100.00;100703.34;6075884;19;20018;-72
2023/12/24 01:19:48;;;;;;;13.88;3.92;;;;;;;9.47;100.00;100716.44;6079894;19;20026;-75
2023/12/24 01:21:54;;;;;;;7.25;2.50;;;;;;;9.45;100.00;100723.50;6080956;19;20023;-75
2023/12/24 01:23:59;;;;;;;16.50;2.92;;;;;;;9.45;100.00;100720.91;6080565;19;20027;-74
2023/12/24 01:26:04;;;;;;;8.50;2.90;;;;;;;9.41;100.00;100719.31;6073225;19;20102;-72
2023/12/24 01:28:09;;;;;;;8.98;3.13;;;;;;;9.43;100.00;100707.00;6079818;19;20010;-73
2023/12/24 01:30:16;;;;;;;15.02;3.20;;;;;;;9.45;100.00;100708.66;6076996;19;20793;-72
2023/12/24 01:32:19;;;;;;;14.15;3.25;;;;;;;9.44;100.00;100712.19;6075105;19;20779;-72
2023/12/24 01:34:24;;;;;;;7.50;2.72;;;;;;;9.44;100.00;100709.56;6078854;19;20010;-72
2023/12/24 01:36:29;;;;;;;10.63;3.25;;;;;;;9.41;100.00;100696.56;6078734;19;20096;-73
2023/12/24 01:38:34;;;;;;;8.85;3.13;;;;;;;9.42;100.00;100698.25;6081489;19;20015;-73
2023/12/24 01:40:39;;;;;;;8.75;3.00;;;;;;;9.39;100.00;100687.88;6081607;19;20011;-72
2023/12/24 01:42:46;;;;;;;10.30;2.70;;;;;;;9.41;100.00;100690.47;6080294;19;20010;-72
2023/12/24 01:44:51;;;;;;;8.38;2.75;;;;;;;9.41;100.00;100682.59;6078069;19;21030;-74
2023/12/24 01:46:59;;;;;;;13.93;3.72;;;;;;;9.38;100.00;100678.31;6075629;19;20061;-72
2023/12/24 01:49:04;;;;;;;4.82;2.17;;;;;;;9.41;100.00;100662.47;6078194;19;20013;-72
2023/12/24 01:51:11;;;;;;;8.95;2.42;;;;;;;9.41;100.00;100672.09;6074513;19;20110;-72
2023/12/24 01:53:19;;;;;;;12.15;3.65;;;;;;;9.37;100.00;100667.88;6074101;19;20656;-72
2023/12/24 01:55:25;;;;;;;11.45;2.50;;;;;;;9.40;100.00;100662.50;6077917;19;20035;-73
2023/12/24 01:57:31;;;;;;;15.35;3.47;;;;;;;9.41;100.00;100669.47;6081103;19;20028;-71
2023/12/24 01:59:37;;;;;;;17.25;2.95;;;;;;;9.45;100.00;100650.97;6078343;19;20015;-71
2023/12/24 02:01:42;;;;;;;7.03;2.60;;;;;;;9.40;100.00;100655.53;6084938;19;20114;-72
2023/12/24 02:03:50;;;;;;;6.90;2.28;;;;;;;9.39;100.00;100659.03;6086429;19;20019;-72
2023/12/24 02:05:57;;;;;;;12.82;2.72;;;;;;;9.37;100.00;100641.66;6081938;19;20014;-71
2023/12/24 02:08:04;;;;;;;11.30;3.50;;;;;;;9.38;100.00;100644.22;6084676;19;20018;-72
2023/12/24 02:10:10;;;;;;;10.02;2.65;;;;;;;9.42;100.00;100640.56;6084151;19;20074;-70
2023/12/24 02:12:15;;;;;;;15.07;2.97;;;;;;;9.41;100.00;100640.63;6087677;19;20018;-70
2023/12/24 02:14:20;;;;;;;14.70;3.90;;;;;;;9.38;100.00;100639.00;6087976;19;20013;-73
2023/12/24 02:16:27;;;;;;;6.43;2.17;;;;;;;9.39;100.00;100637.22;6086400;19;20024;-73
2023/12/24 02:18:32;;;;;;;7.63;2.13;;;;;;;9.37;100.00;100653.03;6086686;19;20020;-72
2023/12/24 02:20:41;;;;;;;2.85;1.58;;;;;;;9.38;100.00;100646.00;6084728;19;20458;-71
2023/12/24 02:22:49;;;;;;;8.52;1.92;;;;;;;9.35;100.00;100648.75;6086096;19;20306;-73
2023/12/24 02:24:54;;;;;;;3.78;1.92;;;;;;;9.38;100.00;100657.34;6084721;19;20007;-72
2023/12/24 02:27:17;;;;;;;13.82;2.83;;;;;;;9.36;100.00;100638.19;6087888;19;20474;-71
2023/12/24 02:29:29;;;;;;;6.82;2.22;;;;;;;9.41;100.00;100635.38;6081848;19;20244;-72
2023/12/24 02:31:38;;;;;;;5.07;2.30;;;;;;;9.36;100.00;100635.56;6084014;19;20309;-71
2023/12/24 02:33:44;;;;;;;6.07;1.95;;;;;;;9.40;100.00;100646.78;6079299;19;20024;-69
2023/12/24 02:35:51;;;;;;;10.38;1.65;;;;;;;9.39;100.00;100639.84;6085743;19;20010;-70
2023/12/24 02:37:59;;;;;;;3.20;1.35;;;;;;;9.39;100.00;100631.97;6083791;19;20015;-72
2023/12/24 02:40:04;;;;;;;5.80;1.63;;;;;;;9.40;100.00;100628.41;6086999;19;20400;-70
2023/12/24 02:42:09;;;;;;;5.90;1.02;;;;;;;9.41;100.00;100631.00;6084293;19;20375;-71
2023/12/24 02:44:16;;;;;;;7.28;1.75;;;;;;;9.39;100.00;100627.56;6083332;19;20041;-71
2023/12/24 02:46:20;;;;;;;6.95;1.90;;;;;;;9.42;100.00;100611.72;6084209;19;20006;-72
2023/12/24 02:48:25;;;;;;;6.30;1.73;;;;;;;9.45;100.00;100614.25;6083928;19;20014;-70
2023/12/24 02:50:30;;;;;;;7.45;1.58;;;;;;;9.47;100.00;100606.28;6086940;19;20010;-73
2023/12/24 02:52:35;;;;;;;3.78;1.77;;;;;;;9.50;100.00;100600.06;6084669;19;20003;-74
2023/12/24 02:54:44;;;;;;;5.65;2.28;;;;;;;9.52;100.00;100600.88;6087167;19;20059;-71
2023/12/24 02:56:49;;;;;;;10.57;2.35;;;;;;;9.51;100.00;100599.16;6088811;19;20016;-70
2023/12/24 02:58:54;;;;;;;9.30;2.08;;;;;;;9.52;100.00;100591.22;6085841;19;20011;-72
2023/12/24 03:00:59;;;;;;;8.73;2.00;;;;;;;9.55;100.00;100593.72;6086180;19;20020;-72
2023/12/24 03:03:04;;;;;;;4.57;1.70;;;;;;;9.53;100.00;100589.44;6086449;19;20038;-72
2023/12/24 03:05:10;;;;;;;10.45;2.63;;;;;;;9.60;100.00;100593.53;6084887;19;20002;-73
2023/12/24 03:07:15;;;;;;;4.38;1.30;;;;;;;9.60;100.00;100583.06;6085852;19;20558;-72
2023/12/24 03:09:20;;;;;;;10.50;1.90;;;;;;;9.60;100.00;100589.13;6083204;19;20007;-73
2023/12/24 03:11:28;;;;;;;10.07;2.13;;;;;;;9.61;100.00;100580.38;6082463;19;20014;-72
2023/12/24 03:13:33;;;;;;;3.45;1.90;;;;;;;9.63;100.00;100590.78;6083325;19;20053;-71
2023/12/24 03:15:38;;;;;;;15.85;2.30;;;;;;;9.65;100.00;100595.06;6082763;19;20023;-71
2023/12/24 03:17:43;;;;;;;5.90;1.58;;;;;;;9.70;100.00;100578.28;6083577;19;20020;-71
2023/12/24 03:19:46;;;;;;;10.35;2.47;;;;;;;9.65;100.00;100584.56;5974007;19;226444;-71
2023/12/24 03:21:51;;;;;;;5.72;2.22;;;;;;;9.66;100.00;100567.94;6081147;19;20029;-70
2023/12/24 03:23:56;;;;;;;16.60;2.67;;;;;;;9.63;100.00;100552.28;6084471;19;20007;-70
2023/12/24 03:26:01;;;;;;;10.63;2.20;;;;;;;9.68;100.00;100565.22;6079726;19;20038;-72
2023/12/24 03:28:09;;;;;;;9.90;2.33;;;;;;;9.68;100.00;100554.72;6083496;19;20033;-72
2023/12/24 03:30:15;;;;;;;6.50;2.00;;;;;;;9.67;100.00;100563.53;6084154;19;20010;-72
2023/12/24 03:32:20;;;;;;;8.27;2.00;;;;;;;9.65;100.00;100566.19;6085095;19;20078;-72
2023/12/24 03:34:25;;;;;;;6.05;2.15;;;;;;;9.66;100.00;100586.28;6082353;19;20018;-71
2023/12/24 03:36:27;;;;;;;9.48;1.75;;;;;;;9.68;100.00;100570.47;6084720;19;20081;-70
2023/12/24 03:38:32;;;;;;;10.73;2.55;;;;;;;9.67;100.00;100571.41;6083257;19;20106;-70
2023/12/24 03:40:37;;;;;;;7.90;1.33;;;;;;;9.68;100.00;100567.84;6082088;19;20081;-70
2023/12/24 03:42:42;;;;;;;6.57;1.90;;;;;;;9.68;100.00;100570.47;6083281;19;20280;-70
2023/12/24 03:44:50;;;;;;;7.20;2.15;;;;;;;9.66;100.00;100561.81;6078754;19;20090;-72
2023/12/24 03:46:54;;;;;;;3.25;1.63;;;;;;;9.65;100.00;100568.81;6083834;19;20010;-71
2023/12/24 03:48:57;;;;;;;4.47;1.70;;;;;;;9.67;100.00;100568.78;6082892;19;20094;-71
2023/12/24 03:51:02;;;;;;;5.57;2.25;;;;;;;9.67;100.00;100559.13;6080286;19;20011;-71
2023/12/24 03:53:07;;;;;;;6.13;2.03;;;;;;;9.70;100.00;100573.03;6080043;19;20003;-70
2023/12/24 03:55:12;;;;;;;8.60;2.58;;;;;;;9.70;100.00;100563.41;6082122;19;20048;-71
2023/12/24 03:57:14;;;;;;;6.22;1.92;;;;;;;9.68;100.00;100565.22;6081962;19;20498;-71
2023/12/24 03:59:21;;;;;;;4.65;2.17;;;;;;;9.68;100.00;100559.97;6084341;19;20034;-71
2023/12/24 04:01:30;;;;;;;9.57;2.45;;;;;;;9.68;100.00;100560.81;6082280;19;20010;-71
2023/12/24 04:03:35;;;;;;;8.40;2.00;;;;;;;9.70;100.00;100573.03;6079922;19;20299;-71
2023/12/24 04:05:37;;;;;;;10.23;2.20;;;;;;;9.72;100.00;100576.47;6083459;19;19999;-72
2023/12/24 04:07:42;;;;;;;10.38;2.85;;;;;;;9.73;100.00;100567.66;6078090;19;20010;-70
2023/12/24 04:09:47;;;;;;;6.57;2.38;;;;;;;9.68;100.00;100550.31;6084425;19;20495;-71
2023/12/24 04:11:52;;;;;;;11.75;3.70;;;;;;;9.72;100.00;100555.47;6082690;19;20006;-70
2023/12/24 04:13:57;;;;;;;8.70;2.80;;;;;;;9.73;100.00;100551.91;6081675;19;20028;-71
2023/12/24 04:16:02;;;;;;;24.38;4.28;;;;;;;9.72;100.00;100556.31;6084891;19;20175;-70
2023/12/24 04:18:07;;;;;;;17.38;3.10;;;;;;;9.74;100.00;100554.50;6082074;19;20020;-73
2023/12/24 04:20:13;;;;;;;10.23;2.83;;;;;;;9.78;100.00;100549.97;6081019;19;20050;-70
2023/12/24 04:22:21;;;;;;;13.95;2.58;;;;;;;9.77;100.00;100553.47;6077324;19;20011;-70
2023/12/24 04:24:26;;;;;;;9.70;2.50;;;;;;;9.79;100.00;100563.00;6079182;19;20006;-72
2023/12/24 04:26:28;;;;;;;20.65;3.70;;;;;;;9.77;100.00;100562.22;6082068;19;20468;-72
2023/12/24 04:28:34;;;;;;;18.27;4.18;;;;;;;9.76;100.00;100562.28;6080885;19;20034;-72
2023/12/24 04:30:36;;;;;;;15.25;3.03;;;;;;;9.79;100.00;100563.00;6081466;19;20024;-71
2023/12/24 04:32:41;;;;;;;19.45;3.83;;;;;;;9.78;100.00;100561.31;6082348;19;20025;-71
2023/12/24 04:34:49;;;;;;;16.52;3.70;;;;;;;9.79;100.00;100563.00;6081530;19;20015;-70
2023/12/24 04:36:55;;;;;;;16.13;2.90;;;;;;;9.81;100.00;100558.53;6082793;19;20009;-71
2023/12/24 04:39:00;;;;;;;14.07;4.65;;;;;;;9.81;100.00;100560.31;6082717;19;20031;-71
2023/12/24 04:41:05;;;;;;;17.45;3.97;;;;;;;9.82;100.00;100562.00;6083113;19;20430;-71
2023/12/24 04:43:11;;;;;;;13.82;4.28;;;;;;;9.86;100.00;100568.84;6080825;19;20361;-71
2023/12/24 04:45:13;;;;;;;19.75;5.13;;;;;;;9.82;100.00;100562.91;6081184;19;20037;-71
2023/12/24 04:47:21;;;;;;;14.00;3.53;;;;;;;9.85;100.00;100561.91;6079971;19;20028;-71
2023/12/24 04:49:26;;;;;;;19.85;4.15;;;;;;;9.88;100.00;100561.78;6077260;19;20017;-71
2023/12/24 04:51:33;;;;;;;15.10;3.53;;;;;;;9.88;100.00;100548.66;6080901;19;20006;-70
2023/12/24 04:53:38;;;;;;;29.52;4.35;;;;;;;9.86;100.00;100553.97;6076744;19;20089;-70
2023/12/24 04:55:44;;;;;;;12.25;4.15;;;;;;;9.87;100.00;100542.56;6082221;19;20010;-71
2023/12/24 04:57:50;;;;;;;12.50;3.80;;;;;;;9.83;100.00;100546.22;6077894;19;20504;-69
2023/12/24 04:59:55;;;;;;;11.90;3.72;;;;;;;9.87;100.00;100539.06;6080847;19;20042;-71
2023/12/24 05:01:58;;;;;;;19.88;4.60;;;;;;;9.85;100.00;100552.25;6081037;19;20035;-69
2023/12/24 05:04:03;;;;;;;14.55;4.43;;;;;;;9.88;100.00;100546.88;6079813;19;20015;-72
2023/12/24 05:06:08;;;;;;;22.38;5.53;;;;;;;9.87;100.00;100550.44;6082359;19;20006;-69
2023/12/24 05:08:17;;;;;;;17.15;3.80;;;;;;;9.88;100.00;100549.50;6080519;19;20047;-72
2023/12/24 05:10:20;;;;;;;19.23;3.95;;;;;;;9.90;100.00;100549.44;6079623;19;20014;-71
2023/12/24 05:12:24;;;;;;;35.33;4.80;;;;;;;9.87;100.00;100536.44;6078766;19;20006;-70
2023/12/24 05:14:32;;;;;;;26.80;5.22;;;;;;;9.87;100.00;100537.31;6079897;19;20006;-70
2023/12/24 05:16:38;;;;;;;32.13;4.75;;;;;;;9.89;100.00;100532.81;6082761;19;20007;-70
2023/12/24 05:18:43;;;;;;;17.92;3.50;;;;;;;9.89;100.00;100538.06;6083284;19;20047;-71
2023/12/24 05:20:48;;;;;;;19.73;4.00;;;;;;;9.88;100.00;100518.00;6081917;19;20049;-70
2023/12/24 05:22:52;;;;;;;16.88;4.50;;;;;;;9.89;100.00;100527.56;6078786;19;20042;-70
2023/12/24 05:25:00;;;;;;;21.40;3.67;;;;;;;9.89;100.00;100532.81;6079454;19;20549;-70
2023/12/24 05:27:05;;;;;;;20.88;3.85;;;;;;;9.93;100.00;100527.47;6080269;19;20452;-70
2023/12/24 05:29:11;;;;;;;15.80;4.18;;;;;;;9.95;100.00;100515.09;6081451;19;20426;-70
2023/12/24 05:31:16;;;;;;;17.25;3.60;;;;;;;9.96;100.00;100528.19;6079539;19;20336;-70
2023/12/24 05:33:21;;;;;;;27.38;4.53;;;;;;;9.94;100.00;100506.38;6079780;19;20078;-71
2023/12/24 05:35:27;;;;;;;25.30;4.82;;;;;;;9.94;100.00;100514.25;6078873;19;20014;-71
2023/12/24 05:37:32;;;;;;;19.10;3.72;;;;;;;9.96;100.00;100520.31;6082011;19;20018;-70
2023/12/24 05:39:40;;;;;;;19.38;3.67;;;;;;;9.95;100.00;100522.97;6080385;19;20015;-70
2023/12/24 05:41:50;;;;;;;13.73;3.85;;;;;;;9.94;100.00;100524.75;6081278;19;20348;-71
2023/12/24 05:43:52;;;;;;;20.60;4.30;;;;;;;9.99;100.00;100512.28;6078768;19;20412;-69
2023/12/24 05:45:57;;;;;;;16.05;4.03;;;;;;;9.99;100.00;100514.91;6082206;19;20014;-69
2023/12/24 05:47:59;;;;;;;28.70;5.03;;;;;;;9.99;100.00;100507.03;6080661;19;20478;-69
2023/12/24 05:50:06;;;;;;;23.17;3.88;;;;;;;10.01;100.00;100520.13;6079388;19;20031;-70
2023/12/24 05:52:11;;;;;;;21.02;3.63;;;;;;;9.99;100.00;100517.53;6080272;19;20011;-70
2023/12/24 05:54:14;;;;;;;25.40;4.93;;;;;;;9.99;100.00;100508.81;6080120;19;20027;-70
2023/12/24 05:56:20;;;;;;;16.50;3.95;;;;;;;10.02;100.00;100501.66;6082492;19;20771;-69
2023/12/24 05:58:26;;;;;;;23.02;4.63;;;;;;;10.02;100.00;100501.66;6080575;19;20009;-70
2023/12/24 06:00:31;;;;;;;18.60;3.80;;;;;;;10.04;100.00;100499.81;6079235;19;20007;-69
2023/12/24 06:02:38;;;;;;;14.32;4.60;;;;;;;10.07;100.00;100485.72;6080694;19;20411;-70
2023/12/24 06:04:43;;;;;;;21.52;3.92;;;;;;;10.07;100.00;100490.97;6079627;19;20082;-71
2023/12/24 06:06:48;;;;;;;19.05;3.17;;;;;;;10.11;100.00;100480.25;6079858;19;20295;-69
2023/12/24 06:08:53;;;;;;;21.63;3.22;;;;;;;10.16;100.00;100481.81;6081003;19;20043;-70
2023/12/24 06:10:55;;;;;;;21.15;4.65;;;;;;;10.15;100.00;100485.38;6079696;19;20010;-70
2023/12/24 06:13:00;;;;;;;20.20;4.85;;;;;;;10.16;100.00;100484.44;6081171;19;20006;-70
2023/12/24 06:15:08;;;;;;;14.73;3.42;;;;;;;10.19;100.00;100479.03;6076800;19;20309;-69
2023/12/24 06:17:15;;;;;;;15.93;4.90;;;;;;;10.21;100.00;100482.47;6083323;19;20367;-69
2023/12/24 06:19:20;;;;;;;16.27;3.60;;;;;;;10.20;100.00;100488.66;6081118;19;20011;-70
2023/12/24 06:21:25;;;;;;;19.67;3.85;;;;;;;10.19;100.00;100479.03;6081555;19;20453;-71
2023/12/24 06:23:31;;;;;;;16.88;3.97;;;;;;;10.21;100.00;100482.47;6078621;19;20450;-72
2023/12/24 06:25:37;;;;;;;15.60;3.15;;;;;;;10.26;100.00;100491.00;6079296;19;20014;-71
2023/12/24 06:27:44;;;;;;;16.67;3.50;;;;;;;10.26;100.00;100477.88;6078676;19;20482;-73
2023/12/24 06:29:50;;;;;;;15.32;4.10;;;;;;;10.26;100.00;100498.88;6081158;19;20014;-71
2023/12/24 06:32:00;;;;;;;18.88;3.78;;;;;;;10.27;100.00;100493.59;6075294;19;20617;-71
2023/12/24 06:34:05;;;;;;;16.88;3.72;;;;;;;10.29;100.00;100478.63;6081632;19;20013;-68
2023/12/24 06:36:10;;;;;;;12.82;3.88;;;;;;;10.32;100.00;100496.00;6082173;19;20122;-70
2023/12/24 06:38:15;;;;;;;15.30;3.78;;;;;;;10.29;100.00;100497.00;6080857;19;20006;-70
2023/12/24 06:40:20;;;;;;;16.70;4.22;;;;;;;10.27;100.00;100497.97;6078443;19;20003;-70
2023/12/24 06:42:25;;;;;;;12.93;4.22;;;;;;;10.29;100.00;100498.75;6079196;19;20007;-69
2023/12/24 06:44:28;;;;;;;21.08;4.50;;;;;;;10.29;100.00;100481.25;6080682;19;20028;-69
2023/12/24 06:46:33;;;;;;;18.48;4.63;;;;;;;10.27;100.00;100493.59;6083102;19;20458;-70
2023/12/24 06:48:41;;;;;;;19.45;5.40;;;;;;;10.31;100.00;100489.03;6084634;19;20095;-70
2023/12/24 06:50:46;;;;;;;22.38;4.22;;;;;;;10.32;100.00;100490.75;6080330;19;20036;-69
2023/12/24 06:52:54;;;;;;;14.57;3.67;;;;;;;10.31;100.00;100486.41;6081086;19;20007;-69
2023/12/24 06:54:56;;;;;;;21.48;5.20;;;;;;;10.34;100.00;100483.66;6085385;19;20010;-68
2023/12/24 06:57:01;;;;;;;16.75;3.67;;;;;;;10.33;100.00;100497.72;6084598;19;20475;-70
2023/12/24 06:59:06;;;;;;;15.25;4.07;;;;;;;10.35;100.00;100501.13;6082787;19;20007;-70
2023/12/24 07:01:11;;;;;;;15.35;4.50;;;;;;;10.35;100.00;100493.25;6082982;19;20086;-68
2023/12/24 07:03:17;;;;;;;20.17;4.70;;;;;;;10.36;100.00;100489.69;6084260;19;20010;-68
2023/12/24 07:05:25;;;;;;;26.70;4.75;;;;;;;10.36;100.00;100484.44;6084932;19;20007;-70
2023/12/24 07:07:30;;;;;;;24.55;3.72;;;;;;;10.37;100.00;100483.50;6085192;19;20066;-70
2023/12/24 07:09:35;;;;;;;21.63;4.38;;;;;;;10.37;100.00;100490.53;6085389;19;20086;-71
2023/12/24 07:11:39;;;;;;;27.10;4.47;;;;;;;10.37;100.00;100480.88;6085310;19;20458;-71
2023/12/24 07:13:45;;;;;;;18.70;4.00;;;;;;;10.37;100.00;100494.00;6081400;19;20003;-69
2023/12/24 07:15:49;;;;;;;26.02;5.25;;;;;;;10.41;100.00;100498.22;6083233;19;20031;-71
2023/12/24 07:17:54;;;;;;;22.00;4.47;;;;;;;10.41;100.00;100492.97;6084344;19;20492;-70
2023/12/24 07:19:59;;;;;;;24.77;3.63;;;;;;;10.42;100.00;100494.66;6078279;19;20342;-70
2023/12/24 07:22:07;;;;;;;15.80;3.42;;;;;;;10.38;100.00;100485.22;6081856;19;20405;-70
2023/12/24 07:24:13;;;;;;;13.60;3.28;;;;;;;10.36;100.00;100479.19;6080901;19;20042;-71
2023/12/24 07:26:20;;;;;;;5.75;2.72;;;;;;;10.33;100.00;100477.56;6083261;19;20497;-72
2023/12/24 07:28:25;;;;;;;14.48;3.47;;;;;;;10.33;100.00;100480.19;6076430;19;20010;-71
2023/12/24 07:30:28;;;;;;;21.27;3.55;;;;;;;10.35;100.00;100479.25;6082704;19;20023;-70
2023/12/24 07:32:33;;;;;;;14.15;3.20;;;;;;;10.33;100.00;100481.97;6085141;19;20597;-71
2023/12/24 07:34:38;;;;;;;11.98;3.60;;;;;;;10.31;100.00;100481.16;6078494;19;20010;-71
2023/12/24 07:36:43;;;;;;;6.95;2.45;;;;;;;10.35;100.00;100477.50;6084318;19;20003;-72
2023/12/24 07:38:50;;;;;;;13.73;3.50;;;;;;;10.33;100.00;100471.44;6083416;19;20010;-72
2023/12/24 07:40:53;;;;;;;7.57;2.67;;;;;;;10.32;100.00;100477.59;6082358;19;21108;-72
2023/12/24 07:42:59;;;;;;;10.20;3.08;;;;;;;10.34;100.00;100478.41;6081263;19;20042;-72
2023/12/24 07:45:04;;;;;;;14.77;3.33;;;;;;;10.38;100.00;100481.75;6083048;19;20549;-71
2023/12/24 07:47:08;;;;;;;13.63;3.10;;;;;;;10.37;100.00;100475.63;6083172;19;20007;-72
2023/12/24 07:49:14;;;;;;;14.88;3.22;;;;;;;10.35;100.00;100471.38;6082049;19;20042;-72
2023/12/24 07:51:21;;;;;;;23.52;3.65;;;;;;;10.39;100.00;100462.44;6083447;19;20419;-72
2023/12/24 07:53:28;;;;;;;14.73;2.90;;;;;;;10.38;100.00;100468.63;6083533;19;20480;-71
2023/12/24 07:55:33;;;;;;;11.15;3.67;;;;;;;10.42;100.00;100478.06;6084652;19;20015;-71
2023/12/24 07:57:38;;;;;;;18.05;3.70;;;;;;;10.42;100.00;100464.91;6082485;19;20021;-71
2023/12/24 07:59:43;;;;;;;8.63;3.85;;;;;;;10.38;100.00;100456.34;6084789;19;20531;-71
2023/12/24 08:01:51;;;;;;;20.25;5.03;;;;;;;10.44;100.00;100469.19;6083972;19;20470;-71
2023/12/24 08:03:55;;;;;;;17.70;4.03;;;;;;;10.45;100.00;100477.91;6082452;19;20002;-72
2023/12/24 08:06:00;;;;;;;14.77;3.60;;;;;;;10.45;100.00;100473.53;6083435;19;20010;-70
2023/12/24 08:08:03;;;;;;;23.90;4.30;;;;;;;10.44;100.00;100474.44;6083390;19;20010;-69
2023/12/24 08:10:09;;;;;;;;;;;;;;;10.44;100.00;100477.06;6083296;19;20037;-69
2023/12/24 08:12:16;;;;;;;19.17;3.47;;;;;;;10.47;100.00;100471.66;6083289;19;19933;-70
2023/12/24 08:14:21;;;;;;;19.63;4.13;;;;;;;10.52;100.00;100474.09;6084468;19;20009;-69
2023/12/24 08:16:23;;;;;;;18.55;4.20;;;;;;;10.50;100.00;100462.78;6081214;19;20022;-68
2023/12/24 08:18:31;;;;;;;15.30;4.53;;;;;;;10.51;100.00;100473.25;6084740;19;20448;-70
2023/12/24 08:20:34;;;;;;;20.52;4.85;;;;;;;10.56;100.00;100475.66;6082503;19;20010;-71
2023/12/24 08:22:40;;;;;;;20.75;4.72;;;;;;;10.57;100.00;100469.47;6084387;19;20384;-69
2023/12/24 08:24:45;;;;;;;23.17;4.28;;;;;;;10.57;100.00;100472.09;6085124;19;20016;-69
2023/12/24 08:26:48;;;;;;;16.40;3.88;;;;;;;10.59;100.00;100475.50;6082492;19;20014;-71
2023/12/24 08:28:55;;;;;;;18.83;4.43;;;;;;;10.57;100.00;100471.25;6085120;19;20015;-70
2023/12/24 08:31:00;;;;;;;31.63;6.10;;;;;;;10.57;100.00;100473.88;6084789;19;20006;-71
2023/12/24 08:33:05;;;;;;;19.17;4.32;;;;;;;10.54;100.00;100483.59;6082637;19;20058;-70
2023/12/24 08:35:10;;;;;;;19.63;3.85;;;;;;;10.62;100.00;100495.53;6084064;19;20006;-69
2023/12/24 08:37:16;;;;;;;16.90;4.25;;;;;;;10.60;100.00;100484.25;6077728;19;20098;-70
2023/12/24 08:39:21;;;;;;;22.05;5.03;;;;;;;10.61;100.00;100473.69;6084909;19;20034;-69
2023/12/24 08:41:25;;;;;;;12.35;3.63;;;;;;;10.63;100.00;100476.22;6086050;19;20094;-72
2023/12/24 08:43:31;;;;;;;19.52;4.90;;;;;;;10.65;100.00;100464.72;6083681;19;20020;-69
2023/12/24 08:45:39;;;;;;;17.38;5.07;;;;;;;10.69;100.00;100474.16;6086358;19;20014;-70
2023/12/24 08:47:44;;;;;;;21.88;4.18;;;;;;;10.69;100.00;100475.91;6081199;19;20007;-70
2023/12/24 08:49:49;;;;;;;18.17;3.63;;;;;;;10.67;100.00;100488.31;6084165;19;20370;-69
2023/12/24 08:51:54;;;;;;;21.95;4.28;;;;;;;10.70;100.00;100475.84;6079902;19;20011;-70
2023/12/24 08:53:57;;;;;;;20.33;3.85;;;;;;;10.68;100.00;100464.56;6081895;19;20024;-70
2023/12/24 08:56:01;;;;;;;15.15;4.10;;;;;;;10.74;100.00;100455.53;6084421;19;20011;-69
2023/12/24 08:58:07;;;;;;;16.77;5.60;;;;;;;10.74;100.00;100473.94;6084769;19;20074;-71
2023/12/24 09:00:16;;;;;;;20.23;4.28;;;;;;;10.78;100.00;100441.34;6082278;19;20363;-70
2023/12/24 09:02:26;;;;;;;25.67;5.20;;;;;;;10.77;100.00;100442.28;6083791;19;20478;-71
2023/12/24 09:04:32;;;;;;;29.65;5.43;;;;;;;10.80;100.00;100441.28;6086641;19;20081;-70
2023/12/24 09:06:38;;;;;;;21.33;3.97;;;;;;;10.83;100.00;100451.63;6080817;19;20018;-69
2023/12/24 09:08:43;;;;;;;18.63;4.07;;;;;;;10.83;100.00;100455.09;6075406;19;20365;-69
2023/12/24 09:10:51;;;;;;;18.60;4.80;;;;;;;10.86;100.00;100454.13;6081706;19;20014;-69
2023/12/24 09:12:56;;;;;;;23.80;4.32;;;;;;;10.88;100.00;100445.22;6081352;19;20014;-69
2023/12/24 09:15:00;;;;;;;26.85;5.25;;;;;;;10.89;100.00;100446.06;6080502;19;20027;-69
2023/12/24 09:17:05;;;;;;;19.42;4.40;;;;;;;10.90;100.00;100442.50;6078900;19;20462;-69
2023/12/24 09:19:13;;;;;;;20.65;4.55;;;;;;;10.90;100.00;100448.63;6080682;19;20018;-71
2023/12/24 09:21:18;;;;;;;18.13;6.03;;;;;;;10.88;100.00;100452.28;6077862;19;20010;-69
2023/12/24 09:23:23;;;;;;;18.60;4.03;;;;;;;10.87;100.00;100448.75;6078795;19;20469;-69
2023/12/24 09:25:26;;;;;;;23.38;4.63;;;;;;;10.90;100.00;100440.75;6080873;19;20379;-71
2023/12/24 09:27:31;;;;;;;32.63;7.22;;;;;;;10.95;100.00;100446.66;6078308;19;20077;-70
2023/12/24 09:29:36;;;;;;;22.75;5.20;;;;;;;10.95;100.00;100440.50;6080944;19;20078;-70
2023/12/24 09:31:42;;;;;;;26.60;5.63;;;;;;;10.94;100.00;100431.78;6085088;19;20577;-72
2023/12/24 09:33:47;;;;;;;19.27;3.65;;;;;;;10.96;100.00;100437.81;6081202;19;20010;-69
2023/12/24 09:35:51;;;;;;;27.92;7.22;;;;;;;10.99;100.00;100427.16;6080242;19;20027;-70